• Join FlightAware (Why Join?)
  • Login
  • US Flag 
03:01PM EDT


 

Airport Tracker/Info


-or-


 

Live Flight TrackerFlight Track Log ✈ UAL1421 ✈ 29-Jun-2013 ✈ KIAH - MNMG / MGA

Flight Track Log - Related Links

Times and Time Zones

All times are in EDT time to prevent confusion due to time zone crossing. See the UAL1421 flight status page for this flight to view local times or setup timezone preferences in your user account.

Time Position Orientation Groundspeed Altitude Reporting Facility
EDT Latitude Longitude Course Direction KTS MPH feet Rate Location/Type
08:48PM 29.9846 -95.3595 332° Northwest 178 205 400  Level FlightAware ADS-B
08:48PM 29.9936 -95.3653 331° Northwest 174 200 1,000 2,460 Climbing FlightAware ADS-B
08:48PM 29.9962 -95.3674 325° Northwest 175 201 1,100 2,520 Climbing FlightAware ADS-B
08:48PM 29.9984 -95.3696 319° Northwest 176 203 1,300 3,000 Climbing FlightAware ADS-B
08:48PM 30.0002 -95.3719 312° West 179 206 1,400 1,680 Climbing FlightAware ADS-B
08:48PM 30.0018 -95.3746 304° West 183 211 1,500 840 Climbing FlightAware ADS-B
08:48PM 30.0030 -95.3773 297° West 188 216 1,500 840 Level FlightAware ADS-B
08:48PM 30.0043 -95.3814 290° West 194 223 1,600 1,500 Climbing FlightAware ADS-B
08:48PM 30.0051 -95.3854 283° West 198 228 1,700 1,500 Climbing FlightAware ADS-B
08:48PM 30.0055 -95.3895 276° West 200 230 1,800 1,680 Climbing FlightAware ADS-B
08:48PM 30.0055 -95.3933 270° West 205 236 1,900 840 Climbing FlightAware ADS-B
08:48PM 30.0053 -95.3970 266° West 211 243 1,900  Level FlightAware ADS-B
08:48PM 30.0047 -95.4003 258° West 216 249 1,900 960 Level FlightAware ADS-B
08:49PM 30.0038 -95.4040 254° West 220 253 2,000 1,680 Climbing FlightAware ADS-B
08:49PM 30.0023 -95.4085 249° West 224 258 2,100 840 Climbing FlightAware ADS-B
08:49PM 30.0005 -95.4122 241° Southwest 232 267 2,100 840 Level FlightAware ADS-B
08:49PM 29.9980 -95.4163 235° Southwest 238 274 2,200 1,500 Climbing FlightAware ADS-B
08:49PM 29.9950 -95.4199 226° Southwest 240 276 2,300 1,680 Climbing FlightAware ADS-B
08:49PM 29.9925 -95.4225 222° Southwest 245 282 2,400 1,500 Climbing FlightAware ADS-B
08:49PM 29.9882 -95.4259 214° Southwest 250 288 2,500 1,320 Climbing FlightAware ADS-B
08:49PM 29.9843 -95.4282 207° Southwest 252 290 2,600 2,640 Climbing FlightAware ADS-B
08:49PM 29.9781 -95.4308 200° South 251 289 2,900 3,000 Climbing FlightAware ADS-B
08:49PM 29.9726 -95.4322 192° South 251 289 3,100 3,000 Climbing FlightAware ADS-B
08:49PM 29.9671 -95.4331 188° South 249 287 3,400 3,600 Climbing FlightAware ADS-B
08:49PM 29.9613 -95.4333 182° South 249 287 3,700 2,640 Climbing FlightAware ADS-B
08:49PM 29.9569 -95.4331 178° South 251 289 3,800 1,980 Climbing FlightAware ADS-B
08:49PM 29.9507 -95.4322 173° South 256 295 4,000 1,980 Climbing FlightAware ADS-B
08:50PM 29.9459 -95.4308 166° South 262 302 4,100 1,200 Climbing FlightAware ADS-B
08:50PM 29.9394 -95.4277 158° South 269 310 4,200 1,320 Climbing FlightAware ADS-B
08:50PM 29.9358 -95.4253 150° Southeast 271 312 4,300 960 Climbing FlightAware ADS-B
08:50PM 29.9325 -95.4227 146° Southeast 273 314 4,300 840 Level FlightAware ADS-B
08:50PM 29.9285 -95.4188 140° Southeast 280 322 4,400 1,320 Climbing FlightAware ADS-B
08:50PM 29.9246 -95.4141 134° Southeast 283 326 4,500 1,980 Climbing FlightAware ADS-B
08:50PM 29.9191 -95.4055 124° Southeast 283 326 4,800 3,000 Climbing FlightAware ADS-B
08:50PM 29.9035 -95.3713 117° Southeast 285 328 6,100 2,940 Climbing FlightAware ADS-B
08:51PM 29.8871 -95.3334 117° Southeast 284 327 7,400 2,700 Climbing FlightAware ADS-B
08:51PM 29.8678 -95.2888 117° Southeast 298 343 8,800 2,520 Climbing FlightAware ADS-B
08:52PM 29.8577 -95.2670 118° Southeast 306 352 9,400 1,860 Climbing FlightAware ADS-B
08:53PM 29.8168 -95.1839 120° Southeast 355 409 11,000 1,620 Climbing FlightAware ADS-B
08:53PM 29.7912 -95.1315 119° Southeast 377 434 11,800 1,920 Climbing FlightAware ADS-B
08:54PM 29.7652 -95.0783 119° Southeast 387 445 13,000 2,460 Climbing FlightAware ADS-B
08:54PM 29.7366 -95.0190 121° Southeast 392 451 14,400 2,460 Climbing FlightAware ADS-B
08:54PM 29.7335 -95.0138 124° Southeast 393 452 14,500 2,460 Climbing FlightAware ADS-B
08:54PM 29.7225 -95.0005 136° Southeast 396 456 14,900 2,760 Climbing FlightAware ADS-B
08:54PM 29.7166 -94.9951 142° Southeast 397 457 15,100 2,400 Climbing FlightAware ADS-B
08:54PM 29.7070 -94.9880 147° Southeast 399 459 15,300 1,980 Climbing FlightAware ADS-B
08:55PM 29.6961 -94.9819 154° Southeast 400 460 15,500 1,980 Climbing FlightAware ADS-B
08:55PM 29.6857 -94.9775 160° South 404 465 15,700 1,740 Climbing FlightAware ADS-B
08:55PM 29.6290 -94.9631 168° South 418 481 16,600 1,860 Climbing FlightAware ADS-B
08:56PM 29.5714 -94.9481 167° South 428 493 17,600 2,100 Climbing FlightAware ADS-B
08:57PM 29.4542 -94.9168 167° South 435 501 19,800 2,220 Climbing FlightAware ADS-B
08:58PM 29.3335 -94.8847 167° South 436 502 22,100 2,160 Climbing FlightAware ADS-B
08:58PM 29.3020 -94.8759 166° South 438 504 22,600 1,740 Climbing FlightAware ADS-B
08:58PM 29.2624 -94.8598 160° South 440 506 23,200 1,620 Climbing FlightAware ADS-B
08:59PM 29.2341 -94.8437 154° Southeast 443 510 23,600 1,380 Climbing FlightAware ADS-B
08:59PM 29.1806 -94.8074 149° Southeast 450 518 24,300 1,380 Climbing FlightAware ADS-B
09:00PM 29.1265 -94.7707 149° Southeast 456 525 25,000 1,440 Climbing FlightAware ADS-B
09:00PM 29.0610 -94.7262 149° Southeast 461 531 25,900 1,320 Climbing FlightAware ADS-B
09:01PM 28.9967 -94.6827 149° Southeast 468 539 26,600 1,260 Climbing FlightAware ADS-B
09:02PM 28.8795 -94.6033 149° Southeast 475 547 28,000 1,380 Climbing FlightAware ADS-B
09:02PM 28.8213 -94.5641 149° Southeast 474 545 28,800 1,380 Climbing FlightAware ADS-B
09:03PM 28.7573 -94.5210 149° Southeast 477 549 29,500 1,200 Climbing FlightAware ADS-B
09:03PM 28.6983 -94.4814 150° Southeast 481 554 30,100 1,320 Climbing FlightAware ADS-B
09:04PM 28.6409 -94.4430 150° Southeast 477 549 30,900 1,440 Climbing FlightAware ADS-B
09:04PM 28.5806 -94.4026 150° Southeast 476 548 31,600 1,320 Climbing FlightAware ADS-B
09:05PM 28.5231 -94.3642 150° Southeast 476 548 32,300 1,380 Climbing FlightAware ADS-B
09:06PM 28.4345 -94.2997 147° Southeast 472 543 33,400 1,140 Climbing FlightAware ADS-B
09:07PM 28.3636 -94.2342 147° Southeast 467 537 34,200 900 Climbing Houston Center
09:08PM 28.2628 -94.1431 141° Southeast 463 533 35,100 1,080 Climbing Houston Center
09:09PM 28.1628 -94.0522 141° Southeast 462 532 36,400 900 Climbing Houston Center
09:10PM 28.0650 -93.9633 141° Southeast 453 521 37,000 240 Climbing Houston Center
09:11PM 27.9664 -93.8753 142° Southeast 452 520 37,000  Level Houston Center
09:12PM 27.8697 -93.7889 142° Southeast 446 513 37,000  Level Houston Center
09:13PM 27.7525 -93.6819 141° Southeast 450 518 37,000  Level Houston Center
09:14PM 27.6553 -93.5958 142° Southeast 447 514 37,000  Level Houston Center
09:15PM 27.5572 -93.5081 142° Southeast 449 517 37,000  Level Houston Center
09:16PM 27.4608 -93.4208 141° Southeast 447 514 37,000  Level Houston Center
09:17PM 27.3628 -93.3350 142° Southeast 447 514 37,000  Level Houston Center
09:18PM 27.2653 -93.2486 142° Southeast 445 512 37,000  Level Houston Center
09:19PM 27.1664 -93.1614 142° Southeast 450 518 37,000  Level Houston Center
09:21PM 27.0069 -93.0183 141° Southeast  Level FlightAware Approximate
09:28PM 26.3036 -92.5063 149° Southeast  Level FlightAware Approximate
09:29PM 26.2000 -92.4385 150° Southeast  Level FlightAware Approximate
09:30PM 26.0964 -92.3709 150° Southeast  Level FlightAware Approximate
09:31PM 25.9927 -92.3034 150° Southeast  Level FlightAware Approximate
09:32PM 25.8890 -92.2361 150° Southeast  Level FlightAware Approximate
09:33PM 25.7844 -92.1706 152° Southeast  Level FlightAware Approximate
09:34PM 25.6788 -92.1073 152° Southeast  Level FlightAware Approximate
09:35PM 25.5755 -92.0394 149° Southeast  Level FlightAware Approximate
09:36PM 25.4724 -91.9711 149° Southeast  Level FlightAware Approximate
09:37PM 25.3693 -91.9030 149° Southeast  Level FlightAware Approximate
09:38PM 25.2662 -91.8349 149° Southeast  Level FlightAware Approximate
09:39PM 25.1631 -91.7670 149° Southeast  Level FlightAware Approximate
09:40PM 25.0599 -91.6991 149° Southeast  Level FlightAware Approximate
09:41PM 24.9567 -91.6314 149° Southeast  Level FlightAware Approximate
09:42PM 24.8534 -91.5638 149° Southeast  Level FlightAware Approximate
09:43PM 24.7502 -91.4963 149° Southeast  Level FlightAware Approximate
09:44PM 24.6469 -91.4289 149° Southeast  Level FlightAware Approximate
09:45PM 24.5435 -91.3616 149° Southeast  Level FlightAware Approximate
09:46PM 24.4365 -91.3024 156° South  Level FlightAware Approximate
09:47PM 24.3267 -91.2491 156° South  Level FlightAware Approximate
09:48PM 24.2168 -91.1958 156° South  Level FlightAware Approximate
09:49PM 24.1070 -91.1426 156° South  Level FlightAware Approximate
09:50PM 23.9971 -91.0896 156° South  Level FlightAware Approximate
09:51PM 23.8873 -91.0366 156° South  Level FlightAware Approximate
09:52PM 23.7773 -90.9837 156° South  Level FlightAware Approximate
09:53PM 23.6674 -90.9309 156° South  Level FlightAware Approximate
09:54PM 23.5575 -90.8782 156° South  Level FlightAware Approximate
09:55PM 23.4475 -90.8256 156° South  Level FlightAware Approximate
09:56PM 23.3376 -90.7730 156° South  Level FlightAware Approximate
09:57PM 23.2276 -90.7206 156° South  Level FlightAware Approximate
09:57PM 23.1840 -90.7030 156° South 447 514 37,000  Level FlightAware
09:57PM 23.0380 -90.6340 156° South 450 518 37,000  Level FlightAware
09:58PM 23.1176 -90.6682 156° South  Level FlightAware Approximate
09:58PM 22.9550 -90.5950 157° South 451 519 37,000  Level FlightAware
09:59PM 22.8660 -90.5530 156° South 453 521 37,000  Level FlightAware
10:01PM 22.6845 -90.4669 156° South  Level FlightAware Approximate
10:02PM 22.5744 -90.4149 156° South  Level FlightAware Approximate
10:03PM 22.4644 -90.3629 156° South  Level FlightAware Approximate
10:04PM 22.3543 -90.3110 156° South  Level FlightAware Approximate
10:05PM 22.2442 -90.2592 156° South  Level FlightAware Approximate
10:06PM 22.1341 -90.2075 156° South  Level FlightAware Approximate
10:07PM 22.0240 -90.1558 156° South  Level FlightAware Approximate
10:08PM 21.9138 -90.1042 157° South  Level FlightAware Approximate
10:09PM 21.8037 -90.0527 157° South  Level FlightAware Approximate
10:09PM 21.7460 -90.0290 157° South 452 520 37,000  Level FlightAware
10:10PM 21.5910 -89.9570 157° South 456 525 37,000  Level FlightAware
10:11PM 21.4530 -89.8920 156° South 457 526 37,000  Level FlightAware
10:12PM 21.3770 -89.8580 157° South 458 527 37,000  Level FlightAware
10:12PM 21.2880 -89.8170 157° South 458 527 37,000  Level FlightAware
10:13PM 21.2050 -89.7780 156° South 458 527 37,000  Level FlightAware
10:14PM 21.1110 -89.7360 157° South 456 525 37,000  Level FlightAware
10:17PM 20.8311 -89.6086 159° South  Level FlightAware Approximate
10:18PM 20.7188 -89.5631 159° South  Level FlightAware Approximate
10:19PM 20.6065 -89.5177 159° South  Level FlightAware Approximate
10:20PM 20.4942 -89.4724 159° South  Level FlightAware Approximate
10:21PM 20.3818 -89.4271 159° South  Level FlightAware Approximate
10:21PM 20.2680 -89.3870 159° South 455 524 37,000  Level FlightAware
10:22PM 20.1780 -89.3510 159° South 454 522 37,000  Level FlightAware
10:23PM 20.0940 -89.3170 159° South 451 519 37,000  Level FlightAware
10:23PM 20.0170 -89.2650 148° Southeast 467 537 37,000  Level FlightAware
10:24PM 19.9680 -89.2110 134° Southeast 466 536 37,000  Level FlightAware
10:25PM 19.9000 -89.1380 135° Southeast 465 535 37,000  Level FlightAware
10:26PM 19.8150 -89.0480 135° Southeast 463 533 37,000  Level FlightAware
10:26PM 19.7510 -88.9390 122° Southeast 465 535 37,000  Level FlightAware
10:28PM 19.6890 -88.7930 114° Southeast 464 534 37,000  Level FlightAware
10:28PM 19.6500 -88.6990 114° Southeast 467 537 37,000  Level FlightAware
10:30PM 19.5630 -88.4690 112° Southeast 474 545 37,000  Level FlightAware
10:32PM 19.3581 -88.4029 163° South  Level Estimated
10:33PM 19.2432 -88.3659 163° South  Level Estimated
10:33PM 19.3420 -88.1020 163° South 462 532 37,000  Level FlightAware
10:34PM 19.1284 -88.3289 163° South  Level Estimated
10:36PM 19.1001 -88.0345 165° South  Level Estimated
10:37PM 18.9840 -88.0022 165° South  Level Estimated
10:37PM 18.9510 -87.9720 165° South 449 517 37,000  Level FlightAware
10:38PM 18.8730 -87.9610 172° South 448 516 37,000  Level FlightAware
10:38PM 18.8100 -87.9520 172° South 448 516 37,000  Level FlightAware
10:39PM 18.7270 -87.9390 172° South 448 516 37,000  Level FlightAware
10:40PM 18.6640 -87.9300 172° South 448 516 37,000  Level FlightAware
10:40PM 18.5800 -87.9170 172° South 448 516 37,000  Level FlightAware
10:41PM 18.5150 -87.9080 173° South 448 516 37,000  Level FlightAware
10:42PM 18.4320 -87.8950 172° South 448 516 37,000  Level FlightAware
10:42PM 18.3690 -87.8860 172° South 448 516 37,000  Level FlightAware
10:43PM 18.2830 -87.8730 172° South 448 516 37,000  Level FlightAware
10:44PM 18.2210 -87.8640 172° South 448 516 37,000  Level FlightAware
10:44PM 18.1560 -87.8550 173° South 448 516 37,000  Level FlightAware
10:45PM 18.0500 -87.8390 172° South 448 516 37,000  Level FlightAware
10:48PM 17.8051 -87.7677 165° South  Level Estimated
10:49PM 17.6907 -87.7345 165° South  Level Estimated
10:50PM 17.5763 -87.7013 165° South  Level Estimated
10:51PM 17.4620 -87.6681 165° South  Level Estimated
10:52PM 17.3476 -87.6350 165° South  Level Estimated
10:53PM 17.2332 -87.6020 165° South  Level Estimated
10:54PM 17.1188 -87.5689 165° South  Level Estimated
10:55PM 17.0044 -87.5359 165° South  Level Estimated
10:56PM 16.8901 -87.5030 165° South  Level Estimated
10:57PM 16.7757 -87.4701 165° South  Level Estimated
10:58PM 16.6612 -87.4372 165° South  Level Estimated
10:59PM 16.5468 -87.4044 165° South  Level Estimated
11:00PM 16.4324 -87.3717 165° South  Level Estimated
11:01PM 16.3180 -87.3389 165° South  Level Estimated
11:02PM 16.2036 -87.3062 165° South  Level Estimated
11:03PM 16.0891 -87.2735 165° South  Level Estimated
11:04PM 15.9747 -87.2409 165° South  Level Estimated
11:05PM 15.8603 -87.2083 165° South  Level Estimated
11:06PM 15.7458 -87.1758 165° South  Level Estimated
11:07PM 15.6313 -87.1432 165° South  Level Estimated
11:08PM 15.5169 -87.1107 165° South  Level Estimated
11:09PM 15.4024 -87.0783 165° South  Level Estimated
11:10PM 15.2880 -87.0459 165° South  Level Estimated
11:11PM 15.1735 -87.0135 165° South  Level Estimated
11:12PM 15.0590 -86.9812 165° South  Level Estimated
11:13PM 14.9445 -86.9489 165° South  Level Estimated
11:14PM 14.8301 -86.9166 165° South  Level Estimated
11:15PM 14.7156 -86.8844 165° South  Level Estimated
11:16PM 14.6011 -86.8521 165° South  Level Estimated
11:17PM 14.4866 -86.8200 165° South  Level Estimated
11:18PM 14.3721 -86.7878 165° South  Level Estimated
11:19PM 14.2576 -86.7557 165° South  Level Estimated
11:20PM 14.1431 -86.7237 165° South  Level Estimated
11:21PM 14.0286 -86.6916 165° South  Level Estimated
11:22PM 13.9140 -86.6596 165° South  Level Estimated
11:23PM 13.7995 -86.6276 165° South  Level Estimated
11:24PM 13.6850 -86.5957 165° South  Level Estimated
11:25PM 13.5705 -86.5638 165° South  Level Estimated
11:26PM 13.4559 -86.5319 165° South  Level Estimated
11:27PM 13.3414 -86.5001 165° South  Level Estimated
11:28PM 13.2268 -86.4682 165° South  Level Estimated
11:29PM 13.1123 -86.4364 165° South  Level Estimated
11:30PM 12.9978 -86.4047 165° South  Level Estimated
11:31PM 12.8832 -86.3729 165° South  Level Estimated
11:32PM 12.7686 -86.3412 165° South  Level Estimated
11:33PM 12.6541 -86.3095 165° South  Level Estimated
11:34PM 12.5395 -86.2779 165° South  Level Estimated
11:35PM 12.4249 -86.2463 165° South  Level Estimated
11:36PM 12.3104 -86.2147 165° South  Level Estimated
11:37PM 12.1958 -86.1831 165° South  Level Estimated
11:38PM 12.1415 -86.1682 165° South  Level Estimated
11:39PM 12.1415 -86.1682 26° Northeast  Level Estimated
11:40PM 12.1415 -86.1682 26° Northeast  Level Estimated
11:41PM 12.1415 -86.1682 26° Northeast  Level Estimated
11:42PM 12.1415 -86.1682 26° Northeast  Level Estimated
11:43PM 12.1415 -86.1682 26° Northeast  Level Estimated